B Gas Master — 9HA2718 — position and weather

sailwx.info

Track history (hours):
 
Tides and Currents Weather Stations Pressure Air Temp Water Temp Dewpoint Dewpoint Depression Visibility Wind Speed Wind Dir Waves Ship Positions

B Gas Master

Last reported at 2017-Aug-24 04:52 UTC. Time now 2017-Aug-24 05:00 UTC.
Position N 54°45' W 001°09'.

Length 88 m; draft 6.4 m.

Type: Ship (hazmat cat C). MMSI: 215389000.

Date/timePositionNaut miles runAvg speedWind from/ knotsBaromVisibWave heightAir tempDewpointWater temp
2017-Aug-24 04:52N 54°45' W 001°09'0 0.0
2017-Aug-24 04:25N 54°45' W 001°09'0 0.0
2017-Aug-24 03:55N 54°45' W 001°09'0 0.0
2017-Aug-24 03:22N 54°45' W 001°09'0 1.4
2017-Aug-24 03:01N 54°45' W 001°08'5 9.5
2017-Aug-24 02:31N 54°47' W 001°01'612.4
2017-Aug-24 02:00N 54°49' W 000°51'612.4
2017-Aug-24 01:30N 54°51' W 000°41'612.6
2017-Aug-24 01:01N 54°53' W 000°30'612.6
2017-Aug-24 00:30N 54°56' W 000°20'27212.5
2017-Aug-23 02:46N 56°53' E 006°58'513.3
2017-Aug-23 02:25N 56°55' E 007°06'613.3
2017-Aug-23 01:59N 56°58' E 007°15'613.3
2017-Aug-23 01:30N 57°01' E 007°25'713.1
2017-Aug-23 00:59N 57°04' E 007°36'613.1
2017-Aug-23 00:31N 57°08' E 007°45'712.9
2017-Aug-22 23:59N 57°11' E 007°56'612.7
2017-Aug-22 23:29N 57°15' E 008°06'611.9
2017-Aug-22 22:59N 57°18' E 008°15'612.4
2017-Aug-22 22:30N 57°21' E 008°25'712.7
2017-Aug-22 21:59N 57°24' E 008°35'612.7
2017-Aug-22 21:30N 57°27' E 008°45'1212.6
2017-Aug-22 20:35N 57°34' E 009°03'112.3
2017-Aug-22 20:30N 57°34' E 009°05'4612.3
2017-Aug-22 16:44N 57°57' E 010°20'612.8
2017-Aug-22 16:15N 58°01' E 010°30'513.0
2017-Aug-22 15:54N 58°03' E 010°37'512.9
2017-Aug-22 15:31N 58°06' E 010°45'712.8
2017-Aug-22 15:00N 58°09' E 010°55'613.0
2017-Aug-22 14:30N 58°13' E 011°05'612.2
2017-Aug-22 14:01N 58°16' E 011°15'611.2
2017-Aug-22 13:31N 58°20' E 011°23'2 0.1
2017-Aug-21 15:07N 58°21' E 011°26'0 2.9
2017-Aug-21 15:00N 58°21' E 011°26'5 8.9
2017-Aug-21 14:30N 58°18' E 011°20'611.0
2017-Aug-21 13:59N 58°15' E 011°12'4 7.5
2017-Aug-21 13:29N 58°11' E 011°09'4 7.4
2017-Aug-21 13:00N 58°08' E 011°07'5 9.2
2017-Aug-21 12:30N 58°03' E 011°04'5 9.8
2017-Aug-21 12:00N 57°59' E 011°01'510.0
2017-Aug-21 11:30N 57°54' E 010°58'510.2
2017-Aug-21 11:00N 57°49' E 010°54'510.2
2017-Aug-21 10:30N 57°45' E 010°50'612.5
2017-Aug-21 09:59N 57°39' E 010°44'1 1.5
2017-Aug-21 09:14N 57°39' E 010°41'0 0.0
2017-Aug-21 08:54N 57°39' E 010°41'0 0.0
2017-Aug-21 07:50N 57°39' E 010°41'0 0.0
2017-Aug-21 07:23N 57°39' E 010°41'0 0.0
2017-Aug-21 06:59N 57°39' E 010°41'0 0.0
2017-Aug-21 06:29N 57°39' E 010°41'0 0.0
2017-Aug-21 05:54N 57°39' E 010°41'0 0.0
2017-Aug-21 05:26N 57°39' E 010°41'0 0.0
2017-Aug-21 03:56N 57°39' E 010°41'0 0.0
2017-Aug-20 20:57N 57°39' E 010°41'0 0.0
2017-Aug-20 18:48N 57°39' E 010°41'0 0.0
2017-Aug-20 18:11N 57°39' E 010°41'0 0.0
2017-Aug-20 17:44N 57°39' E 010°41'0 0.0
2017-Aug-20 17:27N 57°39' E 010°41'0 0.0
2017-Aug-20 16:11N 57°39' E 010°42'0 0.0
2017-Aug-20 15:51N 57°39' E 010°41'0 0.0
2017-Aug-20 15:29N 57°39' E 010°42'0 0.0
2017-Aug-20 14:50N 57°39' E 010°42'0 0.0
2017-Aug-20 14:29N 57°39' E 010°42'0 0.0
2017-Aug-20 13:38N 57°39' E 010°42'0 0.0
2017-Aug-20 13:29N 57°39' E 010°42'0 0.0
2017-Aug-20 12:59N 57°39' E 010°42'0 0.0
2017-Aug-20 12:29N 57°39' E 010°42'0 0.0
2017-Aug-20 12:00N 57°39' E 010°42'0 0.0
2017-Aug-20 09:50N 57°39' E 010°41'0 0.0
2017-Aug-20 09:26N 57°39' E 010°41'0 0.0
2017-Aug-20 08:20N 57°39' E 010°41'0 0.0
2017-Aug-20 07:56N 57°39' E 010°41'0 0.0
2017-Aug-20 07:30N 57°39' E 010°41'0 0.0
2017-Aug-20 06:24N 57°39' E 010°41'0 0.0
2017-Aug-20 05:47N 57°39' E 010°41'0 0.0
2017-Aug-20 05:29N 57°39' E 010°41'0 0.0
2017-Aug-20 04:47N 57°39' E 010°41'0 0.0
2017-Aug-20 04:30N 57°39' E 010°41'0 0.0
2017-Aug-20 03:56N 57°39' E 010°41'0 0.0
2017-Aug-20 03:29N 57°39' E 010°41'0 0.0
2017-Aug-20 02:59N 57°39' E 010°41'0 0.0
2017-Aug-20 02:29N 57°39' E 010°41'0 0.0
2017-Aug-20 01:59N 57°39' E 010°41'0 0.0
2017-Aug-20 01:29N 57°39' E 010°41'0 0.0
2017-Aug-20 00:08N 57°39' E 010°41'0 0.0
2017-Aug-19 23:56N 57°39' E 010°41'0 0.0
2017-Aug-19 23:23N 57°39' E 010°41'0 0.0
2017-Aug-19 22:56N 57°39' E 010°41'1 1.5
2017-Aug-19 22:29N 57°39' E 010°42'510.9
2017-Aug-19 22:00N 57°37' E 010°51'611.4
2017-Aug-19 21:30N 57°36' E 011°02'611.3
2017-Aug-19 21:00N 57°35' E 011°13'612.4
2017-Aug-19 20:30N 57°31' E 011°21'612.6
2017-Aug-19 20:00N 57°26' E 011°27'612.6
2017-Aug-19 19:30N 57°20' E 011°32'612.5
2017-Aug-19 19:00N 57°14' E 011°37'713.1
2017-Aug-19 18:30N 57°08' E 011°40'712.7
2017-Aug-19 17:59N 57°02' E 011°44'4912.1
2017-Aug-19 13:54N 56°15' E 012°14'512.7
2017-Aug-19 13:30N 56°12' E 012°21'612.2
2017-Aug-19 13:00N 56°08' E 012°30'611.9
2017-Aug-19 12:30N 56°04' E 012°38'611.8
2017-Aug-19 12:00N 55°59' E 012°42'611.0
2017-Aug-19 11:30N 55°54' E 012°40'611.7
2017-Aug-19 11:00N 55°48' E 012°43'611.9
2017-Aug-19 10:30N 55°42' E 012°41'510.4
2017-Aug-19 10:00N 55°37' E 012°42'5 9.7
2017-Aug-19 09:30N 55°32' E 012°43'611.2
2017-Aug-19 09:00N 55°27' E 012°42'612.4
2017-Aug-19 08:30N 55°20' E 012°40'510.3
2017-Aug-19 08:00N 55°17' E 012°47'611.5
2017-Aug-19 07:30N 55°16' E 012°57'611.7
2017-Aug-19 07:00N 55°16' E 013°08'611.6
2017-Aug-19 06:30N 55°15' E 013°18'611.6
2017-Aug-19 06:00N 55°14' E 013°28'611.7
2017-Aug-19 05:30N 55°14' E 013°38'611.7
2017-Aug-19 05:00N 55°13' E 013°48'611.5
2017-Aug-19 04:30N 55°13' E 013°58'611.6
2017-Aug-19 04:00N 55°13' E 014°08'510.9
2017-Aug-19 03:30N 55°14' E 014°18'611.8
2017-Aug-19 03:00N 55°19' E 014°24'612.0
2017-Aug-19 02:30N 55°24' E 014°30'612.4
2017-Aug-19 02:00N 55°29' E 014°36'612.2
2017-Aug-19 01:30N 55°35' E 014°40'612.4
2017-Aug-19 01:00N 55°41' E 014°44'612.0
2017-Aug-19 00:30N 55°46' E 014°47'611.9
2017-Aug-19 00:00N 55°52' E 014°50'612.2
2017-Aug-18 23:29N 55°58' E 014°54'511.0
2017-Aug-18 23:00N 56°03' E 014°54'5 9.4
2017-Aug-18 22:30N 56°07' E 014°49'2 0.2
2017-Aug-18 09:43N 56°09' E 014°50'0 1.3
2017-Aug-18 09:30N 56°09' E 014°49'3 6.7
2017-Aug-18 09:00N 56°06' E 014°50'2 3.2
2017-Aug-18 08:30N 56°04' E 014°50'1 1.1
2017-Aug-18 08:00N 56°05' E 014°50'1 1.2
2017-Aug-18 07:30N 56°05' E 014°51'4 7.4
2017-Aug-18 07:00N 56°02' E 014°55'612.8
2017-Aug-18 06:30N 55°56' E 014°53'713.3
2017-Aug-18 05:59N 55°49' E 014°49'613.3
2017-Aug-18 05:30N 55°43' E 014°47'713.2
2017-Aug-18 05:00N 55°37' E 014°44'713.2
2017-Aug-18 04:30N 55°30' E 014°41'713.2
2017-Aug-18 04:00N 55°24' E 014°37'713.1
2017-Aug-18 03:30N 55°19' E 014°30'713.1
2017-Aug-18 03:00N 55°14' E 014°23'612.5
2017-Aug-18 02:30N 55°10' E 014°14'713.4
2017-Aug-18 02:00N 55°11' E 014°02'713.4
2017-Aug-18 01:30N 55°11' E 013°51'713.4
2017-Aug-18 01:00N 55°11' E 013°39'713.3
2017-Aug-18 00:29N 55°12' E 013°27'713.3
2017-Aug-17 23:58N 55°12' E 013°15'613.2
2017-Aug-17 23:30N 55°13' E 013°04'712.8
2017-Aug-17 22:59N 55°14' E 012°53'612.8
2017-Aug-17 22:30N 55°17' E 012°43'5 9.9
2017-Aug-17 22:00N 55°21' E 012°38'612.3
2017-Aug-17 21:30N 55°27' E 012°41'510.1
2017-Aug-17 21:00N 55°32' E 012°42'3 6.6
2017-Aug-17 20:30N 55°35' E 012°42'4 7.6
2017-Aug-17 20:00N 55°39' E 012°41'611.2
2017-Aug-17 19:30N 55°45' E 012°41'611.3
2017-Aug-17 19:00N 55°50' E 012°41'611.5
2017-Aug-17 18:30N 55°56' E 012°38'611.5
2017-Aug-17 18:00N 56°02' E 012°38'5 9.3
2017-Aug-17 17:30N 56°06' E 012°34'5 9.7
2017-Aug-17 17:00N 56°08' E 012°27'611.7
2017-Aug-17 16:30N 56°12' E 012°18'612.3
2017-Aug-17 16:00N 56°15' E 012°09'1111.4
2017-Aug-17 15:04N 56°25' E 011°60'411.8
2017-Aug-17 14:42N 56°29' E 011°58'1311.9
2017-Aug-17 13:38N 56°41' E 011°52'311.2
2017-Aug-17 13:20N 56°44' E 011°51'611.9
2017-Aug-17 12:48N 56°51' E 011°48'812.4
2017-Aug-17 12:08N 56°58' E 011°43'212.1
2017-Aug-17 12:00N 56°60' E 011°42'612.2
2017-Aug-17 11:29N 57°06' E 011°38'712.1
2017-Aug-17 10:53N 57°13' E 011°34'411.8
2017-Aug-17 10:30N 57°17' E 011°31'711.6
2017-Aug-17 09:52N 57°24' E 011°27'411.4
2017-Aug-17 09:30N 57°28' E 011°24'611.8
2017-Aug-17 09:00N 57°34' E 011°21'612.3
2017-Aug-17 08:30N 57°40' E 011°19'612.7
2017-Aug-17 08:00N 57°46' E 011°16'713.0
2017-Aug-17 07:29N 57°52' E 011°15'613.0
2017-Aug-17 07:00N 57°59' E 011°12'712.9
2017-Aug-17 06:29N 58°05' E 011°11'712.3
2017-Aug-17 05:55N 58°12' E 011°13'410.8
2017-Aug-17 05:30N 58°16' E 011°16'611.2
2017-Aug-17 05:00N 58°20' E 011°23'2 0.1
2017-Aug-16 09:11N 58°21' E 011°26'0 2.4
2017-Aug-16 09:00N 58°21' E 011°25'4 7.5
2017-Aug-16 08:30N 58°19' E 011°21'611.1
2017-Aug-16 08:00N 58°15' E 011°12'5 9.7
2017-Aug-16 07:30N 58°11' E 011°11'0 0.5
2017-Aug-16 07:00N 58°11' E 011°10'1 1.1
2017-Aug-16 06:30N 58°11' E 011°11'2 4.4
2017-Aug-16 05:58N 58°10' E 011°07'612.6
2017-Aug-16 05:30N 58°09' E 010°56'612.1
2017-Aug-16 04:59N 58°06' E 010°46'712.6
2017-Aug-16 04:28N 58°03' E 010°35'612.9
2017-Aug-16 03:59N 57°59' E 010°26'37412.6
2017-Aug-14 22:14N 55°06' E 000°24'1112.5
2017-Aug-14 21:20N 55°02' E 000°06'412.4
2017-Aug-14 21:01N 55°00' W 000°01'612.4
2017-Aug-14 20:31N 54°58' W 000°11'612.3
2017-Aug-14 20:00N 54°56' W 000°21'1912.4
2017-Aug-14 18:29N 54°49' W 000°51'612.4
2017-Aug-14 18:00N 54°45' W 000°59'612.6
2017-Aug-14 17:30N 54°40' W 001°07'  
Track history (hours):
 
Tides and Currents Weather Stations Pressure Air Temp Water Temp Dewpoint Dewpoint Depression Visibility Wind Speed Wind Dir Waves Ship Positions

B Gas Master

Last reported at 2017-Aug-24 04:52 UTC. Time now 2017-Aug-24 05:00 UTC.
Position N 54°45' W 001°09'.

Length 88 m; draft 6.4 m.

Type: Ship (hazmat cat C). MMSI: 215389000.

Date/timePositionNaut miles runAvg speedWind from/ knotsBaromVisibWave heightAir tempDewpointWater temp
2017-Aug-24 04:52N 54°45' W 001°09'0 0.0
2017-Aug-24 04:25N 54°45' W 001°09'0 0.0
2017-Aug-24 03:55N 54°45' W 001°09'0 0.0
2017-Aug-24 03:22N 54°45' W 001°09'0 1.4
2017-Aug-24 03:01N 54°45' W 001°08'5 9.5
2017-Aug-24 02:31N 54°47' W 001°01'612.4
2017-Aug-24 02:00N 54°49' W 000°51'612.4
2017-Aug-24 01:30N 54°51' W 000°41'612.6
2017-Aug-24 01:01N 54°53' W 000°30'612.6
2017-Aug-24 00:30N 54°56' W 000°20'27212.5
2017-Aug-23 02:46N 56°53' E 006°58'513.3
2017-Aug-23 02:25N 56°55' E 007°06'613.3
2017-Aug-23 01:59N 56°58' E 007°15'613.3
2017-Aug-23 01:30N 57°01' E 007°25'713.1
2017-Aug-23 00:59N 57°04' E 007°36'613.1
2017-Aug-23 00:31N 57°08' E 007°45'712.9
2017-Aug-22 23:59N 57°11' E 007°56'612.7
2017-Aug-22 23:29N 57°15' E 008°06'611.9
2017-Aug-22 22:59N 57°18' E 008°15'612.4
2017-Aug-22 22:30N 57°21' E 008°25'712.7
2017-Aug-22 21:59N 57°24' E 008°35'612.7
2017-Aug-22 21:30N 57°27' E 008°45'1212.6
2017-Aug-22 20:35N 57°34' E 009°03'112.3
2017-Aug-22 20:30N 57°34' E 009°05'4612.3
2017-Aug-22 16:44N 57°57' E 010°20'612.8
2017-Aug-22 16:15N 58°01' E 010°30'513.0
2017-Aug-22 15:54N 58°03' E 010°37'512.9
2017-Aug-22 15:31N 58°06' E 010°45'712.8
2017-Aug-22 15:00N 58°09' E 010°55'613.0
2017-Aug-22 14:30N 58°13' E 011°05'612.2
2017-Aug-22 14:01N 58°16' E 011°15'611.2
2017-Aug-22 13:31N 58°20' E 011°23'2 0.1
2017-Aug-21 15:07N 58°21' E 011°26'0 2.9
2017-Aug-21 15:00N 58°21' E 011°26'5 8.9
2017-Aug-21 14:30N 58°18' E 011°20'611.0
2017-Aug-21 13:59N 58°15' E 011°12'4 7.5
2017-Aug-21 13:29N 58°11' E 011°09'4 7.4
2017-Aug-21 13:00N 58°08' E 011°07'5 9.2
2017-Aug-21 12:30N 58°03' E 011°04'5 9.8
2017-Aug-21 12:00N 57°59' E 011°01'510.0
2017-Aug-21 11:30N 57°54' E 010°58'510.2
2017-Aug-21 11:00N 57°49' E 010°54'510.2
2017-Aug-21 10:30N 57°45' E 010°50'612.5
2017-Aug-21 09:59N 57°39' E 010°44'1 1.5
2017-Aug-21 09:14N 57°39' E 010°41'0 0.0
2017-Aug-21 08:54N 57°39' E 010°41'0 0.0
2017-Aug-21 07:50N 57°39' E 010°41'0 0.0
2017-Aug-21 07:23N 57°39' E 010°41'0 0.0
2017-Aug-21 06:59N 57°39' E 010°41'0 0.0
2017-Aug-21 06:29N 57°39' E 010°41'0 0.0
2017-Aug-21 05:54N 57°39' E 010°41'0 0.0
2017-Aug-21 05:26N 57°39' E 010°41'0 0.0
2017-Aug-21 03:56N 57°39' E 010°41'0 0.0
2017-Aug-20 20:57N 57°39' E 010°41'0 0.0
2017-Aug-20 18:48N 57°39' E 010°41'0 0.0
2017-Aug-20 18:11N 57°39' E 010°41'0 0.0
2017-Aug-20 17:44N 57°39' E 010°41'0 0.0
2017-Aug-20 17:27N 57°39' E 010°41'0 0.0
2017-Aug-20 16:11N 57°39' E 010°42'0 0.0
2017-Aug-20 15:51N 57°39' E 010°41'0 0.0
2017-Aug-20 15:29N 57°39' E 010°42'0 0.0
2017-Aug-20 14:50N 57°39' E 010°42'0 0.0
2017-Aug-20 14:29N 57°39' E 010°42'0 0.0
2017-Aug-20 13:38N 57°39' E 010°42'0 0.0
2017-Aug-20 13:29N 57°39' E 010°42'0 0.0
2017-Aug-20 12:59N 57°39' E 010°42'0 0.0
2017-Aug-20 12:29N 57°39' E 010°42'0 0.0
2017-Aug-20 12:00N 57°39' E 010°42'0 0.0
2017-Aug-20 09:50N 57°39' E 010°41'0 0.0
2017-Aug-20 09:26N 57°39' E 010°41'0 0.0
2017-Aug-20 08:20N 57°39' E 010°41'0 0.0
2017-Aug-20 07:56N 57°39' E 010°41'0 0.0
2017-Aug-20 07:30N 57°39' E 010°41'0 0.0
2017-Aug-20 06:24N 57°39' E 010°41'0 0.0
2017-Aug-20 05:47N 57°39' E 010°41'0 0.0
2017-Aug-20 05:29N 57°39' E 010°41'0 0.0
2017-Aug-20 04:47N 57°39' E 010°41'0 0.0
2017-Aug-20 04:30N 57°39' E 010°41'0 0.0
2017-Aug-20 03:56N 57°39' E 010°41'0 0.0
2017-Aug-20 03:29N 57°39' E 010°41'0 0.0
2017-Aug-20 02:59N 57°39' E 010°41'0 0.0
2017-Aug-20 02:29N 57°39' E 010°41'0 0.0
2017-Aug-20 01:59N 57°39' E 010°41'0 0.0
2017-Aug-20 01:29N 57°39' E 010°41'0 0.0
2017-Aug-20 00:08N 57°39' E 010°41'0 0.0
2017-Aug-19 23:56N 57°39' E 010°41'0 0.0
2017-Aug-19 23:23N 57°39' E 010°41'0 0.0
2017-Aug-19 22:56N 57°39' E 010°41'1 1.5
2017-Aug-19 22:29N 57°39' E 010°42'510.9
2017-Aug-19 22:00N 57°37' E 010°51'611.4
2017-Aug-19 21:30N 57°36' E 011°02'611.3
2017-Aug-19 21:00N 57°35' E 011°13'612.4
2017-Aug-19 20:30N 57°31' E 011°21'612.6
2017-Aug-19 20:00N 57°26' E 011°27'612.6
2017-Aug-19 19:30N 57°20' E 011°32'612.5
2017-Aug-19 19:00N 57°14' E 011°37'713.1
2017-Aug-19 18:30N 57°08' E 011°40'712.7
2017-Aug-19 17:59N 57°02' E 011°44'4912.1
2017-Aug-19 13:54N 56°15' E 012°14'512.7
2017-Aug-19 13:30N 56°12' E 012°21'612.2
2017-Aug-19 13:00N 56°08' E 012°30'611.9
2017-Aug-19 12:30N 56°04' E 012°38'611.8
2017-Aug-19 12:00N 55°59' E 012°42'611.0
2017-Aug-19 11:30N 55°54' E 012°40'611.7
2017-Aug-19 11:00N 55°48' E 012°43'611.9
2017-Aug-19 10:30N 55°42' E 012°41'510.4
2017-Aug-19 10:00N 55°37' E 012°42'5 9.7
2017-Aug-19 09:30N 55°32' E 012°43'611.2
2017-Aug-19 09:00N 55°27' E 012°42'612.4
2017-Aug-19 08:30N 55°20' E 012°40'510.3
2017-Aug-19 08:00N 55°17' E 012°47'611.5
2017-Aug-19 07:30N 55°16' E 012°57'611.7
2017-Aug-19 07:00N 55°16' E 013°08'611.6
2017-Aug-19 06:30N 55°15' E 013°18'611.6
2017-Aug-19 06:00N 55°14' E 013°28'611.7
2017-Aug-19 05:30N 55°14' E 013°38'611.7
2017-Aug-19 05:00N 55°13' E 013°48'611.5
2017-Aug-19 04:30N 55°13' E 013°58'611.6
2017-Aug-19 04:00N 55°13' E 014°08'510.9
2017-Aug-19 03:30N 55°14' E 014°18'611.8
2017-Aug-19 03:00N 55°19' E 014°24'612.0
2017-Aug-19 02:30N 55°24' E 014°30'612.4
2017-Aug-19 02:00N 55°29' E 014°36'612.2
2017-Aug-19 01:30N 55°35' E 014°40'612.4
2017-Aug-19 01:00N 55°41' E 014°44'612.0
2017-Aug-19 00:30N 55°46' E 014°47'611.9
2017-Aug-19 00:00N 55°52' E 014°50'612.2
2017-Aug-18 23:29N 55°58' E 014°54'511.0
2017-Aug-18 23:00N 56°03' E 014°54'5 9.4
2017-Aug-18 22:30N 56°07' E 014°49'2 0.2
2017-Aug-18 09:43N 56°09' E 014°50'0 1.3
2017-Aug-18 09:30N 56°09' E 014°49'3 6.7
2017-Aug-18 09:00N 56°06' E 014°50'2 3.2
2017-Aug-18 08:30N 56°04' E 014°50'1 1.1
2017-Aug-18 08:00N 56°05' E 014°50'1 1.2
2017-Aug-18 07:30N 56°05' E 014°51'4 7.4
2017-Aug-18 07:00N 56°02' E 014°55'612.8
2017-Aug-18 06:30N 55°56' E 014°53'713.3
2017-Aug-18 05:59N 55°49' E 014°49'613.3
2017-Aug-18 05:30N 55°43' E 014°47'713.2
2017-Aug-18 05:00N 55°37' E 014°44'713.2
2017-Aug-18 04:30N 55°30' E 014°41'713.2
2017-Aug-18 04:00N 55°24' E 014°37'713.1
2017-Aug-18 03:30N 55°19' E 014°30'713.1
2017-Aug-18 03:00N 55°14' E 014°23'612.5
2017-Aug-18 02:30N 55°10' E 014°14'713.4
2017-Aug-18 02:00N 55°11' E 014°02'713.4
2017-Aug-18 01:30N 55°11' E 013°51'713.4
2017-Aug-18 01:00N 55°11' E 013°39'713.3
2017-Aug-18 00:29N 55°12' E 013°27'713.3
2017-Aug-17 23:58N 55°12' E 013°15'613.2
2017-Aug-17 23:30N 55°13' E 013°04'712.8
2017-Aug-17 22:59N 55°14' E 012°53'612.8
2017-Aug-17 22:30N 55°17' E 012°43'5 9.9
2017-Aug-17 22:00N 55°21' E 012°38'612.3
2017-Aug-17 21:30N 55°27' E 012°41'510.1
2017-Aug-17 21:00N 55°32' E 012°42'3 6.6
2017-Aug-17 20:30N 55°35' E 012°42'4 7.6
2017-Aug-17 20:00N 55°39' E 012°41'611.2
2017-Aug-17 19:30N 55°45' E 012°41'611.3
2017-Aug-17 19:00N 55°50' E 012°41'611.5
2017-Aug-17 18:30N 55°56' E 012°38'611.5
2017-Aug-17 18:00N 56°02' E 012°38'5 9.3
2017-Aug-17 17:30N 56°06' E 012°34'5 9.7
2017-Aug-17 17:00N 56°08' E 012°27'611.7
2017-Aug-17 16:30N 56°12' E 012°18'612.3
2017-Aug-17 16:00N 56°15' E 012°09'1111.4
2017-Aug-17 15:04N 56°25' E 011°60'411.8
2017-Aug-17 14:42N 56°29' E 011°58'1311.9
2017-Aug-17 13:38N 56°41' E 011°52'311.2
2017-Aug-17 13:20N 56°44' E 011°51'611.9
2017-Aug-17 12:48N 56°51' E 011°48'812.4
2017-Aug-17 12:08N 56°58' E 011°43'212.1
2017-Aug-17 12:00N 56°60' E 011°42'612.2
2017-Aug-17 11:29N 57°06' E 011°38'712.1
2017-Aug-17 10:53N 57°13' E 011°34'411.8
2017-Aug-17 10:30N 57°17' E 011°31'711.6
2017-Aug-17 09:52N 57°24' E 011°27'411.4
2017-Aug-17 09:30N 57°28' E 011°24'611.8
2017-Aug-17 09:00N 57°34' E 011°21'612.3
2017-Aug-17 08:30N 57°40' E 011°19'612.7
2017-Aug-17 08:00N 57°46' E 011°16'713.0
2017-Aug-17 07:29N 57°52' E 011°15'613.0
2017-Aug-17 07:00N 57°59' E 011°12'712.9
2017-Aug-17 06:29N 58°05' E 011°11'712.3
2017-Aug-17 05:55N 58°12' E 011°13'410.8
2017-Aug-17 05:30N 58°16' E 011°16'611.2
2017-Aug-17 05:00N 58°20' E 011°23'2 0.1
2017-Aug-16 09:11N 58°21' E 011°26'0 2.4
2017-Aug-16 09:00N 58°21' E 011°25'4 7.5
2017-Aug-16 08:30N 58°19' E 011°21'611.1
2017-Aug-16 08:00N 58°15' E 011°12'5 9.7
2017-Aug-16 07:30N 58°11' E 011°11'0 0.5
2017-Aug-16 07:00N 58°11' E 011°10'1 1.1
2017-Aug-16 06:30N 58°11' E 011°11'2 4.4
2017-Aug-16 05:58N 58°10' E 011°07'612.6
2017-Aug-16 05:30N 58°09' E 010°56'612.1
2017-Aug-16 04:59N 58°06' E 010°46'712.6
2017-Aug-16 04:28N 58°03' E 010°35'612.9
2017-Aug-16 03:59N 57°59' E 010°26'37412.6
2017-Aug-14 22:14N 55°06' E 000°24'1112.5
2017-Aug-14 21:20N 55°02' E 000°06'412.4
2017-Aug-14 21:01N 55°00' W 000°01'612.4
2017-Aug-14 20:31N 54°58' W 000°11'612.3
2017-Aug-14 20:00N 54°56' W 000°21'1912.4
2017-Aug-14 18:29N 54°49' W 000°51'612.4
2017-Aug-14 18:00N 54°45' W 000°59'612.6
2017-Aug-14 17:30N 54°40' W 001°07'  

Dump ship's entire track history